createdAt,value
2019-03-28T00:00:22.514Z,1021.83
2019-03-28T00:01:22.514Z,1021.82
2019-03-28T00:02:22.496Z,1021.84
2019-03-28T00:03:22.487Z,1021.88
2019-03-28T00:04:22.492Z,1021.86
2019-03-28T00:05:22.459Z,1021.85
2019-03-28T00:06:23.120Z,1021.85
2019-03-28T00:07:24.247Z,1021.92
2019-03-28T00:08:22.428Z,1021.90
2019-03-28T00:09:22.420Z,1021.83
2019-03-28T00:10:27.439Z,1021.83
2019-03-28T00:11:22.393Z,1021.83
2019-03-28T00:12:22.392Z,1021.81
2019-03-28T00:13:22.368Z,1021.76
2019-03-28T00:14:22.359Z,1021.90
2019-03-28T00:15:22.359Z,1021.84
2019-03-28T00:16:22.335Z,1021.79
2019-03-28T00:17:22.324Z,1021.83
2019-03-28T00:18:22.314Z,1021.82
2019-03-28T00:19:22.301Z,1021.82
2019-03-28T00:20:22.342Z,1021.83
2019-03-28T00:21:27.298Z,1021.82
2019-03-28T00:22:22.268Z,1021.80
2019-03-28T00:23:22.261Z,1021.71
2019-03-28T00:24:22.329Z,1021.74
2019-03-28T00:25:22.247Z,1021.76
2019-03-28T00:26:30.198Z,1021.75
2019-03-28T00:27:23.216Z,1021.68
2019-03-28T00:28:22.202Z,1021.71
2019-03-28T00:29:22.190Z,1021.58
2019-03-28T00:30:22.188Z,1021.68
2019-03-28T00:31:22.224Z,1021.74
2019-03-28T00:32:27.187Z,1021.71
2019-03-28T00:33:22.145Z,1021.70
2019-03-28T00:34:22.129Z,1021.68
2019-03-28T00:35:22.155Z,1021.69
2019-03-28T00:36:22.106Z,1021.71
2019-03-28T00:37:22.097Z,1021.65
2019-03-28T00:38:22.085Z,1021.62
2019-03-28T00:39:22.072Z,1021.66
2019-03-28T00:40:22.077Z,1021.65
2019-03-28T00:41:22.054Z,1021.63
2019-03-28T00:42:22.040Z,1021.60
2019-03-28T00:43:27.056Z,1021.59
2019-03-28T00:44:22.039Z,1021.57
2019-03-28T00:45:22.017Z,1021.57
2019-03-28T00:46:21.995Z,1021.64
2019-03-28T00:47:21.989Z,1021.69
2019-03-28T00:48:21.972Z,1021.65
2019-03-28T00:49:21.961Z,1021.70
2019-03-28T00:50:21.961Z,1021.60
2019-03-28T00:51:21.938Z,1021.64
2019-03-28T00:52:21.928Z,1021.67
2019-03-28T00:53:21.913Z,1021.62
2019-03-28T00:54:26.924Z,1021.59
2019-03-28T00:55:21.903Z,1021.61
2019-03-28T00:56:21.882Z,1021.57
2019-03-28T00:57:21.870Z,1021.66
2019-03-28T00:58:21.857Z,1021.62
2019-03-28T00:59:21.845Z,1021.57
2019-03-28T01:00:21.847Z,1021.55
2019-03-28T01:01:21.828Z,1021.60
2019-03-28T01:02:21.812Z,1021.61
2019-03-28T01:03:21.803Z,1021.61
2019-03-28T01:04:21.797Z,1021.66
2019-03-28T01:05:26.818Z,1021.58
2019-03-28T01:06:21.766Z,1021.63
2019-03-28T01:07:22.109Z,1021.62
2019-03-28T01:08:21.745Z,1021.64
2019-03-28T01:09:21.730Z,1021.66
2019-03-28T01:10:22.207Z,1021.63
2019-03-28T01:11:21.708Z,1021.63
2019-03-28T01:12:21.700Z,1021.64
2019-03-28T01:13:21.691Z,1021.65
2019-03-28T01:14:21.675Z,1021.66
2019-03-28T01:15:21.681Z,1021.62
2019-03-28T01:16:26.675Z,1021.64
2019-03-28T01:17:21.646Z,1021.62
2019-03-28T01:18:21.631Z,1021.59
2019-03-28T01:19:21.617Z,1021.66
2019-03-28T01:20:21.615Z,1021.58
2019-03-28T01:21:21.595Z,1021.64
2019-03-28T01:22:21.584Z,1021.59
2019-03-28T01:23:21.574Z,1021.60
2019-03-28T01:24:21.566Z,1021.62
2019-03-28T01:25:21.593Z,1021.65
2019-03-28T01:26:21.550Z,1021.62
2019-03-28T01:27:26.552Z,1021.65
2019-03-28T01:28:21.518Z,1021.66
2019-03-28T01:29:21.505Z,1021.58
2019-03-28T01:30:22.221Z,1021.57
2019-03-28T01:31:21.483Z,1021.59
2019-03-28T01:32:21.471Z,1021.62
2019-03-28T01:33:21.459Z,1021.53
2019-03-28T01:34:21.448Z,1021.51
2019-03-28T01:35:21.451Z,1021.56
2019-03-28T01:36:21.434Z,1021.48
2019-03-28T01:37:21.423Z,1021.54
2019-03-28T01:38:26.425Z,1021.51
2019-03-28T01:39:21.394Z,1021.47
2019-03-28T01:40:21.404Z,1021.47
2019-03-28T01:41:21.370Z,1021.44
2019-03-28T01:42:21.359Z,1021.53
2019-03-28T01:43:21.360Z,1021.49
2019-03-28T01:44:21.342Z,1021.59
2019-03-28T01:45:21.341Z,1021.52
2019-03-28T01:46:21.319Z,1021.50
2019-03-28T01:47:21.308Z,1021.51
2019-03-28T01:48:21.293Z,1021.54
2019-03-28T01:49:26.302Z,1021.47
2019-03-28T01:50:21.288Z,1021.48
2019-03-28T01:51:21.261Z,1021.46
2019-03-28T01:52:21.422Z,1021.48
2019-03-28T01:53:21.249Z,1021.48
2019-03-28T01:54:21.225Z,1021.39
2019-03-28T01:55:22.185Z,1021.41
2019-03-28T01:56:21.210Z,1021.45
2019-03-28T01:57:21.193Z,1021.46
2019-03-28T01:58:21.179Z,1021.43
2019-03-28T01:59:21.298Z,1021.41
2019-03-28T02:00:26.195Z,1021.41
2019-03-28T02:01:21.154Z,1021.41
2019-03-28T02:02:21.137Z,1021.40
2019-03-28T02:03:21.124Z,1021.46
2019-03-28T02:04:21.114Z,1021.48
2019-03-28T02:05:21.167Z,1021.51
2019-03-28T02:06:21.104Z,1021.47
2019-03-28T02:07:21.112Z,1021.49
2019-03-28T02:08:21.075Z,1021.53
2019-03-28T02:09:21.061Z,1021.51
2019-03-28T02:10:21.058Z,1021.50
2019-03-28T02:11:26.063Z,1021.53
2019-03-28T02:12:21.022Z,1021.42
2019-03-28T02:13:21.018Z,1021.49
2019-03-28T02:14:21.010Z,1021.52
2019-03-28T02:15:21.002Z,1021.59
2019-03-28T02:16:21.473Z,1021.55
2019-03-28T02:17:20.967Z,1021.54
2019-03-28T02:18:20.958Z,1021.49
2019-03-28T02:19:20.955Z,1021.49
2019-03-28T02:20:20.957Z,1021.53
2019-03-28T02:21:20.929Z,1021.48
2019-03-28T02:22:25.934Z,1021.48
2019-03-28T02:23:20.911Z,1021.49
2019-03-28T02:24:20.889Z,1021.46
2019-03-28T02:25:20.894Z,1021.50
2019-03-28T02:26:20.868Z,1021.53
2019-03-28T02:27:24.223Z,1021.56
2019-03-28T02:28:20.845Z,1021.56
2019-03-28T02:29:20.835Z,1021.55
2019-03-28T02:30:20.838Z,1021.51
2019-03-28T02:31:20.813Z,1021.54
2019-03-28T02:32:20.866Z,1021.52
2019-03-28T02:33:25.813Z,1021.48
2019-03-28T02:34:20.780Z,1021.45
2019-03-28T02:35:20.780Z,1021.42
2019-03-28T02:36:20.756Z,1021.44
2019-03-28T02:37:20.746Z,1021.42
2019-03-28T02:38:20.740Z,1021.38
2019-03-28T02:39:20.726Z,1021.38
2019-03-28T02:40:20.724Z,1021.39
2019-03-28T02:41:20.701Z,1021.37
2019-03-28T02:42:20.696Z,1021.39
2019-03-28T02:43:20.739Z,1021.37
2019-03-28T02:44:25.734Z,1021.30
2019-03-28T02:45:20.666Z,1021.30
2019-03-28T02:46:20.644Z,1021.34
2019-03-28T02:47:20.718Z,1021.31
2019-03-28T02:48:20.654Z,1021.41
2019-03-28T02:49:20.611Z,1021.31
2019-03-28T02:50:20.619Z,1021.32
2019-03-28T02:51:20.599Z,1021.32
2019-03-28T02:52:21.526Z,1021.32
2019-03-28T02:53:20.615Z,1021.27
2019-03-28T02:54:20.564Z,1021.36
2019-03-28T02:55:25.579Z,1021.32
2019-03-28T02:56:20.534Z,1021.33
2019-03-28T02:57:20.521Z,1021.31
2019-03-28T02:58:20.514Z,1021.25
2019-03-28T02:59:20.503Z,1021.34
2019-03-28T03:00:20.998Z,1021.36
2019-03-28T03:01:20.484Z,1021.33
2019-03-28T03:02:20.482Z,1021.34
2019-03-28T03:03:20.465Z,1021.32
2019-03-28T03:04:20.530Z,1021.30
2019-03-28T03:05:20.491Z,1021.32
2019-03-28T03:06:25.458Z,1021.32
2019-03-28T03:07:20.424Z,1021.37
2019-03-28T03:08:20.437Z,1021.40
2019-03-28T03:09:20.398Z,1021.40
2019-03-28T03:10:20.472Z,1021.46
2019-03-28T03:11:20.382Z,1021.41
2019-03-28T03:12:20.354Z,1021.32
2019-03-28T03:13:20.357Z,1021.41
2019-03-28T03:14:20.344Z,1021.42
2019-03-28T03:15:20.332Z,1021.41
2019-03-28T03:16:20.335Z,1021.44
2019-03-28T03:17:25.329Z,1021.42
2019-03-28T03:18:21.549Z,1021.43
2019-03-28T03:19:20.279Z,1021.50
2019-03-28T03:20:20.265Z,1021.44
2019-03-28T03:21:20.267Z,1021.45
2019-03-28T03:22:20.342Z,1021.45
2019-03-28T03:23:20.416Z,1021.42
2019-03-28T03:24:20.226Z,1021.47
2019-03-28T03:25:20.207Z,1021.54
2019-03-28T03:26:20.209Z,1021.42
2019-03-28T03:27:20.203Z,1021.48
2019-03-28T03:28:25.199Z,1021.47
2019-03-28T03:29:20.173Z,1021.49
2019-03-28T03:30:20.157Z,1021.47
2019-03-28T03:31:21.359Z,1021.50
2019-03-28T03:32:20.140Z,1021.49
2019-03-28T03:33:20.185Z,1021.43
2019-03-28T03:34:20.148Z,1021.45
2019-03-28T03:35:20.110Z,1021.47
2019-03-28T03:36:20.103Z,1021.45
2019-03-28T03:37:20.074Z,1021.49
2019-03-28T03:38:20.066Z,1021.46
2019-03-28T03:39:25.101Z,1021.50
2019-03-28T03:40:20.041Z,1021.50
2019-03-28T03:41:20.058Z,1021.53
2019-03-28T03:42:20.110Z,1021.48
2019-03-28T03:43:20.014Z,1021.50
2019-03-28T03:44:20.035Z,1021.49
2019-03-28T03:45:20.008Z,1021.51
2019-03-28T03:46:19.992Z,1021.48
2019-03-28T03:47:19.979Z,1021.52
2019-03-28T03:48:19.958Z,1021.52
2019-03-28T03:49:19.948Z,1021.43
2019-03-28T03:50:24.950Z,1021.49
2019-03-28T03:51:19.936Z,1021.46
2019-03-28T03:52:19.917Z,1021.49
2019-03-28T03:53:19.893Z,1021.49
2019-03-28T03:54:19.886Z,1021.53
2019-03-28T03:55:19.885Z,1021.52
2019-03-28T03:56:19.878Z,1021.52
2019-03-28T03:57:19.865Z,1021.53
2019-03-28T03:58:19.853Z,1021.55
2019-03-28T03:59:19.840Z,1021.58
2019-03-28T04:00:19.825Z,1021.66
2019-03-28T04:01:24.843Z,1021.69
2019-03-28T04:02:19.797Z,1021.69
2019-03-28T04:03:19.785Z,1021.65
2019-03-28T04:04:19.782Z,1021.66
2019-03-28T04:05:19.767Z,1021.66
2019-03-28T04:06:19.769Z,1021.71
2019-03-28T04:07:19.737Z,1021.69
2019-03-28T04:08:19.748Z,1021.74
2019-03-28T04:09:19.731Z,1021.74
2019-03-28T04:10:19.742Z,1021.72
2019-03-28T04:11:19.710Z,1021.74
2019-03-28T04:12:24.704Z,1021.72
2019-03-28T04:13:19.674Z,1021.77
2019-03-28T04:14:19.672Z,1021.74
2019-03-28T04:15:19.650Z,1021.79
2019-03-28T04:16:19.654Z,1021.84
2019-03-28T04:17:19.626Z,1021.81
2019-03-28T04:18:22.071Z,1021.82
2019-03-28T04:19:19.609Z,1021.82
2019-03-28T04:20:19.596Z,1021.82
2019-03-28T04:21:19.593Z,1021.83
2019-03-28T04:22:19.575Z,1021.78
2019-03-28T04:23:24.607Z,1021.80
2019-03-28T04:24:19.808Z,1021.82
2019-03-28T04:25:19.548Z,1021.87
2019-03-28T04:26:19.554Z,1021.96
2019-03-28T04:27:19.521Z,1021.87
2019-03-28T04:28:31.503Z,1021.89
2019-03-28T04:29:20.492Z,1021.90
2019-03-28T04:30:19.513Z,1021.90
2019-03-28T04:31:19.488Z,1021.90
2019-03-28T04:32:20.574Z,1021.87
2019-03-28T04:33:19.444Z,1021.91
2019-03-28T04:34:24.455Z,1021.89
2019-03-28T04:35:19.429Z,1021.94
2019-03-28T04:36:19.429Z,1021.90
2019-03-28T04:37:19.401Z,1021.91
2019-03-28T04:38:19.403Z,1021.87
2019-03-28T04:39:19.376Z,1021.95
2019-03-28T04:40:19.367Z,1021.92
2019-03-28T04:41:19.364Z,1021.95
2019-03-28T04:42:19.475Z,1021.96
2019-03-28T04:43:19.335Z,1021.96
2019-03-28T04:44:19.367Z,1021.97
2019-03-28T04:45:24.333Z,1021.94
2019-03-28T04:46:19.706Z,1021.91
2019-03-28T04:47:19.286Z,1021.95
2019-03-28T04:48:19.280Z,1021.95
2019-03-28T04:49:19.265Z,1021.94
2019-03-28T04:50:19.251Z,1021.88
2019-03-28T04:51:19.255Z,1021.87
2019-03-28T04:52:19.434Z,1021.92
2019-03-28T04:53:19.225Z,1021.88
2019-03-28T04:54:19.214Z,1021.92
2019-03-28T04:55:19.200Z,1021.89
2019-03-28T04:56:24.223Z,1021.91
2019-03-28T04:57:19.236Z,1021.88
2019-03-28T04:58:21.788Z,1021.90
2019-03-28T04:59:19.160Z,1021.93
2019-03-28T05:00:19.141Z,1021.95
2019-03-28T05:01:19.146Z,1021.98
2019-03-28T05:02:19.117Z,1021.98
2019-03-28T05:03:19.142Z,1022.07
2019-03-28T05:04:21.129Z,1022.03
2019-03-28T05:05:19.082Z,1022.05
2019-03-28T05:06:19.091Z,1022.05
2019-03-28T05:07:24.152Z,1022.08
2019-03-28T05:08:19.049Z,1022.16
2019-03-28T05:09:19.041Z,1022.08
2019-03-28T05:10:19.028Z,1022.06
2019-03-28T05:11:19.032Z,1022.13
2019-03-28T05:12:19.101Z,1022.12
2019-03-28T05:13:19.096Z,1022.12
2019-03-28T05:14:18.984Z,1022.09
2019-03-28T05:15:20.346Z,1022.10
2019-03-28T05:16:18.986Z,1022.08
2019-03-28T05:17:19.011Z,1022.12
2019-03-28T05:18:23.958Z,1022.10
2019-03-28T05:19:18.927Z,1022.11
2019-03-28T05:20:18.915Z,1022.12
2019-03-28T05:21:18.916Z,1022.09
2019-03-28T05:22:18.895Z,1022.04
2019-03-28T05:23:18.936Z,1022.03
2019-03-28T05:24:18.877Z,1022.07
2019-03-28T05:25:18.862Z,1022.11
2019-03-28T05:26:18.863Z,1022.04
2019-03-28T05:27:18.840Z,1022.01
2019-03-28T05:28:18.830Z,1022.02
2019-03-28T05:29:23.844Z,1022.01
2019-03-28T05:30:18.802Z,1022.04
2019-03-28T05:31:18.803Z,1022.00
2019-03-28T05:32:18.788Z,1022.03
2019-03-28T05:33:18.772Z,1022.00
2019-03-28T05:34:18.809Z,1022.03
2019-03-28T05:35:18.751Z,1022.05
2019-03-28T05:36:18.769Z,1021.98
2019-03-28T05:37:18.725Z,1022.04
2019-03-28T05:38:18.728Z,1022.10
2019-03-28T05:39:19.561Z,1022.05
2019-03-28T05:40:23.718Z,1022.11
2019-03-28T05:41:18.709Z,1022.12
2019-03-28T05:42:18.668Z,1022.12
2019-03-28T05:43:18.658Z,1022.17
2019-03-28T05:44:18.645Z,1022.16
2019-03-28T05:45:18.651Z,1022.21
2019-03-28T05:46:18.658Z,1022.23
2019-03-28T05:47:18.620Z,1022.27
2019-03-28T05:48:18.604Z,1022.27
2019-03-28T05:49:18.590Z,1022.25
2019-03-28T05:50:18.577Z,1022.21
2019-03-28T05:51:23.633Z,1022.23
2019-03-28T05:52:18.561Z,1022.22
2019-03-28T05:53:18.547Z,1022.27
2019-03-28T05:54:18.534Z,1022.29
2019-03-28T05:55:18.521Z,1022.29
2019-03-28T05:56:18.543Z,1022.30
2019-03-28T05:57:18.498Z,1022.37
2019-03-28T05:58:18.546Z,1022.33
2019-03-28T05:59:19.429Z,1022.37
2019-03-28T06:00:18.467Z,1022.37
2019-03-28T06:01:18.470Z,1022.40
2019-03-28T06:02:24.327Z,1022.39
2019-03-28T06:03:18.432Z,1022.40
2019-03-28T06:04:18.421Z,1022.34
2019-03-28T06:05:18.410Z,1022.31
2019-03-28T06:06:18.498Z,1022.37
2019-03-28T06:07:18.389Z,1022.42
2019-03-28T06:08:18.379Z,1022.39
2019-03-28T06:09:19.283Z,1022.40
2019-03-28T06:10:18.352Z,1022.37
2019-03-28T06:11:18.354Z,1022.38
2019-03-28T06:12:19.214Z,1022.41
2019-03-28T06:13:23.341Z,1022.37
2019-03-28T06:14:18.307Z,1022.43
2019-03-28T06:15:18.297Z,1022.40
2019-03-28T06:16:18.311Z,1022.36
2019-03-28T06:17:18.276Z,1022.50
2019-03-28T06:18:18.264Z,1022.33
2019-03-28T06:19:18.251Z,1022.38
2019-03-28T06:20:18.243Z,1022.41
2019-03-28T06:21:18.231Z,1022.39
2019-03-28T06:22:18.229Z,1022.44
2019-03-28T06:23:18.206Z,1022.51
2019-03-28T06:24:23.218Z,1022.46
2019-03-28T06:25:18.183Z,1022.45
2019-03-28T06:26:18.177Z,1022.45
2019-03-28T06:27:18.187Z,1022.48
2019-03-28T06:28:18.152Z,1022.54
2019-03-28T06:29:23.599Z,1022.56
2019-03-28T06:30:19.133Z,1022.50
2019-03-28T06:31:18.117Z,1022.55
2019-03-28T06:32:18.117Z,1022.46
2019-03-28T06:33:18.113Z,1022.44
2019-03-28T06:34:18.086Z,1022.45
2019-03-28T06:35:23.155Z,1022.51
2019-03-28T06:36:18.091Z,1022.50
2019-03-28T06:37:18.060Z,1022.55
2019-03-28T06:38:18.048Z,1022.52
2019-03-28T06:39:18.030Z,1022.58
2019-03-28T06:40:18.017Z,1022.57
2019-03-28T06:41:18.006Z,1022.55
2019-03-28T06:42:18.004Z,1022.59
2019-03-28T06:43:17.982Z,1022.54
2019-03-28T06:44:17.987Z,1022.52
2019-03-28T06:45:17.962Z,1022.48
2019-03-28T06:46:22.974Z,1022.57
2019-03-28T06:47:20.922Z,1022.53
2019-03-28T06:48:17.926Z,1022.50
2019-03-28T06:49:17.915Z,1022.50
2019-03-28T06:50:17.903Z,1022.55
2019-03-28T06:51:17.891Z,1022.48
2019-03-28T06:52:17.893Z,1022.53
2019-03-28T06:53:17.869Z,1022.53
2019-03-28T06:54:17.860Z,1022.45
2019-03-28T06:55:17.851Z,1022.46
2019-03-28T06:56:17.859Z,1022.49
2019-03-28T06:57:22.874Z,1022.49
2019-03-28T06:58:17.812Z,1022.45
2019-03-28T06:59:17.804Z,1022.48
2019-03-28T07:00:17.808Z,1022.44
2019-03-28T07:01:17.784Z,1022.44
2019-03-28T07:02:17.783Z,1022.44
2019-03-28T07:03:17.755Z,1022.51
2019-03-28T07:04:17.746Z,1022.47
2019-03-28T07:05:17.736Z,1022.44
2019-03-28T07:06:17.723Z,1022.49
2019-03-28T07:07:18.570Z,1022.45
2019-03-28T07:08:22.723Z,1022.45
2019-03-28T07:09:18.292Z,1022.39
2019-03-28T07:10:17.684Z,1022.45
2019-03-28T07:11:17.669Z,1022.51
2019-03-28T07:12:18.404Z,1022.51
2019-03-28T07:13:17.649Z,1022.45
2019-03-28T07:14:17.635Z,1022.44
2019-03-28T07:15:17.624Z,1022.48
2019-03-28T07:16:17.612Z,1022.43
2019-03-28T07:17:17.614Z,1022.45
2019-03-28T07:18:17.593Z,1022.47
2019-03-28T07:19:22.614Z,1022.48
2019-03-28T07:20:17.569Z,1022.52
2019-03-28T07:21:18.267Z,1022.51
2019-03-28T07:22:17.555Z,1022.49
2019-03-28T07:23:17.537Z,1022.38
2019-03-28T07:24:17.533Z,1022.39
2019-03-28T07:25:17.513Z,1022.40
2019-03-28T07:26:17.507Z,1022.39
2019-03-28T07:27:17.576Z,1022.39
2019-03-28T07:28:17.511Z,1022.41
2019-03-28T07:29:17.463Z,1022.45
2019-03-28T07:30:22.486Z,1022.41
2019-03-28T07:31:17.442Z,1022.41
2019-03-28T07:32:17.443Z,1022.42
2019-03-28T07:33:17.421Z,1022.37
2019-03-28T07:34:17.415Z,1022.41
2019-03-28T07:35:17.407Z,1022.44
2019-03-28T07:36:17.470Z,1022.43
2019-03-28T07:37:17.392Z,1022.38
2019-03-28T07:38:17.368Z,1022.48
2019-03-28T07:39:19.094Z,1022.48
2019-03-28T07:40:17.343Z,1022.46
2019-03-28T07:41:22.369Z,1022.45
2019-03-28T07:42:17.343Z,1022.48
2019-03-28T07:43:17.306Z,1022.53
2019-03-28T07:44:17.303Z,1022.49
2019-03-28T07:45:17.289Z,1022.43
2019-03-28T07:46:17.285Z,1022.43
2019-03-28T07:47:17.277Z,1022.50
2019-03-28T07:48:17.256Z,1022.56
2019-03-28T07:49:17.461Z,1022.49
2019-03-28T07:50:17.299Z,1022.49
2019-03-28T07:51:17.223Z,1022.52
2019-03-28T07:52:22.238Z,1022.48
2019-03-28T07:53:19.735Z,1022.53
2019-03-28T07:54:17.193Z,1022.45
2019-03-28T07:55:17.195Z,1022.51
2019-03-28T07:56:17.170Z,1022.42
2019-03-28T07:57:17.177Z,1022.43
2019-03-28T07:58:17.152Z,1022.52
2019-03-28T07:59:17.127Z,1022.45
2019-03-28T08:00:17.115Z,1022.41
2019-03-28T08:01:18.220Z,1022.35
2019-03-28T08:02:17.108Z,1022.39
2019-03-28T08:03:22.102Z,1022.43
2019-03-28T08:04:17.074Z,1022.29
2019-03-28T08:05:17.110Z,1022.29
2019-03-28T08:06:17.047Z,1022.31
2019-03-28T08:07:17.047Z,1022.36
2019-03-28T08:08:17.028Z,1022.41
2019-03-28T08:09:17.700Z,1022.30
2019-03-28T08:10:17.108Z,1022.33
2019-03-28T08:11:17.057Z,1022.32
2019-03-28T08:12:23.063Z,1022.40
2019-03-28T08:13:17.977Z,1022.43
2019-03-28T08:14:21.984Z,1022.48
2019-03-28T08:15:16.945Z,1022.56
2019-03-28T08:16:16.960Z,1022.58
2019-03-28T08:17:16.933Z,1022.53
2019-03-28T08:18:16.948Z,1022.53
2019-03-28T08:19:16.907Z,1022.47
2019-03-28T08:20:16.889Z,1022.35
2019-03-28T08:21:16.876Z,1022.40
2019-03-28T08:22:16.878Z,1022.41
2019-03-28T08:23:16.857Z,1022.37
2019-03-28T08:24:16.859Z,1022.34
2019-03-28T08:25:21.865Z,1022.32
2019-03-28T08:26:16.820Z,1022.41
2019-03-28T08:27:17.153Z,1022.43
2019-03-28T08:28:16.823Z,1022.36
2019-03-28T08:29:16.793Z,1022.34
2019-03-28T08:30:19.268Z,1022.37
2019-03-28T08:31:16.842Z,1022.38
2019-03-28T08:32:16.783Z,1022.44
2019-03-28T08:33:16.756Z,1022.44
2019-03-28T08:34:16.731Z,1022.45
2019-03-28T08:35:16.723Z,1022.39
2019-03-28T08:36:21.736Z,1022.44
2019-03-28T08:37:16.812Z,1022.41
2019-03-28T08:38:16.687Z,1022.38
2019-03-28T08:39:16.678Z,1022.37
2019-03-28T08:40:16.665Z,1022.33
2019-03-28T08:41:16.653Z,1022.35
2019-03-28T08:42:16.664Z,1022.35
2019-03-28T08:43:16.636Z,1022.44
2019-03-28T08:44:16.620Z,1022.38
2019-03-28T08:45:16.613Z,1022.43
2019-03-28T08:46:16.597Z,1022.43
2019-03-28T08:47:21.626Z,1022.40
2019-03-28T08:48:16.577Z,1022.40
2019-03-28T08:49:16.562Z,1022.44
2019-03-28T08:50:16.562Z,1022.38
2019-03-28T08:51:16.551Z,1022.36
2019-03-28T08:52:16.552Z,1022.32
2019-03-28T08:53:16.695Z,1022.30
2019-03-28T08:54:16.513Z,1022.31
2019-03-28T08:55:16.497Z,1022.28
2019-03-28T08:56:16.485Z,1022.35
2019-03-28T08:57:16.671Z,1022.33
2019-03-28T08:58:21.495Z,1022.33
2019-03-28T08:59:16.455Z,1022.39
2019-03-28T09:00:17.088Z,1022.34
2019-03-28T09:01:16.438Z,1022.36
2019-03-28T09:02:16.509Z,1022.36
2019-03-28T09:03:16.486Z,1022.46
2019-03-28T09:04:16.392Z,1022.37
2019-03-28T09:05:16.394Z,1022.44
2019-03-28T09:06:17.187Z,1022.40
2019-03-28T09:07:17.580Z,1022.44
2019-03-28T09:08:16.368Z,1022.39
2019-03-28T09:09:21.545Z,1022.40
2019-03-28T09:10:16.341Z,1022.44
2019-03-28T09:11:16.311Z,1022.42
2019-03-28T09:12:16.300Z,1022.41
2019-03-28T09:13:16.302Z,1022.38
2019-03-28T09:14:16.282Z,1022.43
2019-03-28T09:15:16.345Z,1022.45
2019-03-28T09:16:16.274Z,1022.45
2019-03-28T09:17:16.245Z,1022.39
2019-03-28T09:18:16.245Z,1022.41
2019-03-28T09:19:16.222Z,1022.40
2019-03-28T09:20:21.244Z,1022.41
2019-03-28T09:21:16.213Z,1022.38
2019-03-28T09:22:16.187Z,1022.42
2019-03-28T09:23:16.234Z,1022.40
2019-03-28T09:24:16.170Z,1022.37
2019-03-28T09:25:16.155Z,1022.43
2019-03-28T09:26:16.164Z,1022.40
2019-03-28T09:27:16.171Z,1022.42
2019-03-28T09:28:16.153Z,1022.41
2019-03-28T09:29:16.109Z,1022.36
2019-03-28T09:30:16.097Z,1022.36
2019-03-28T09:31:21.110Z,1022.33
2019-03-28T09:32:16.074Z,1022.29
2019-03-28T09:33:16.082Z,1022.42
2019-03-28T09:34:16.053Z,1022.36
2019-03-28T09:35:16.038Z,1022.34
2019-03-28T09:36:16.034Z,1022.30
2019-03-28T09:37:16.018Z,1022.33
2019-03-28T09:38:16.022Z,1022.34
2019-03-28T09:39:15.999Z,1022.33
2019-03-28T09:40:16.008Z,1022.33
2019-03-28T09:41:15.974Z,1022.45
2019-03-28T09:42:20.981Z,1022.43
2019-03-28T09:43:15.973Z,1022.44
2019-03-28T09:44:15.938Z,1022.43
2019-03-28T09:45:15.939Z,1022.39
2019-03-28T09:46:15.915Z,1022.42
2019-03-28T09:47:15.906Z,1022.34
2019-03-28T09:48:15.907Z,1022.38
2019-03-28T09:49:15.895Z,1022.32
2019-03-28T09:50:15.870Z,1022.29
2019-03-28T09:51:15.860Z,1022.34
2019-03-28T09:52:15.853Z,1022.32
2019-03-28T09:53:20.877Z,1022.34
2019-03-28T09:54:15.826Z,1022.30
2019-03-28T09:55:18.726Z,1022.29
2019-03-28T09:56:15.803Z,1022.20
2019-03-28T09:57:15.794Z,1022.23
2019-03-28T09:58:15.806Z,1022.27
2019-03-28T09:59:15.776Z,1022.30
2019-03-28T10:00:15.761Z,1022.23
2019-03-28T10:01:15.743Z,1022.21
2019-03-28T10:02:15.779Z,1022.27
2019-03-28T10:03:15.735Z,1022.24
2019-03-28T10:04:20.736Z,1022.24
2019-03-28T10:05:15.699Z,1022.23
2019-03-28T10:06:15.688Z,1022.22
2019-03-28T10:07:15.675Z,1022.21
2019-03-28T10:08:15.678Z,1022.12
2019-03-28T10:09:15.660Z,1022.15
2019-03-28T10:10:15.657Z,1022.13
2019-03-28T10:11:15.723Z,1022.13
2019-03-28T10:12:15.625Z,1022.13
2019-03-28T10:13:15.636Z,1022.07
2019-03-28T10:14:15.599Z,1022.04
2019-03-28T10:15:20.609Z,1022.06
2019-03-28T10:16:15.581Z,1022.03
2019-03-28T10:17:15.578Z,1022.07
2019-03-28T10:18:15.595Z,1022.02
2019-03-28T10:19:15.544Z,1022.09
2019-03-28T10:20:15.529Z,1021.94
2019-03-28T10:21:15.532Z,1022.11
2019-03-28T10:22:15.522Z,1022.00
2019-03-28T10:23:15.506Z,1022.02
2019-03-28T10:24:15.486Z,1022.01
2019-03-28T10:25:15.473Z,1021.94
2019-03-28T10:26:20.489Z,1021.99
2019-03-28T10:27:15.464Z,1022.04
2019-03-28T10:28:15.597Z,1021.99
2019-03-28T10:29:15.440Z,1022.01
2019-03-28T10:30:15.417Z,1022.05
2019-03-28T10:31:16.910Z,1022.10
2019-03-28T10:32:15.393Z,1021.93
2019-03-28T10:33:15.397Z,1021.94
2019-03-28T10:34:15.373Z,1021.99
2019-03-28T10:35:15.381Z,1022.09
2019-03-28T10:36:15.350Z,1022.05
2019-03-28T10:37:20.366Z,1021.95
2019-03-28T10:38:15.339Z,1021.90
2019-03-28T10:39:15.334Z,1021.84
2019-03-28T10:40:15.302Z,1021.89
2019-03-28T10:41:15.296Z,1021.96
2019-03-28T10:42:15.281Z,1021.97
2019-03-28T10:43:15.294Z,1022.08
2019-03-28T10:44:15.261Z,1022.00
2019-03-28T10:45:15.250Z,1022.08
2019-03-28T10:46:15.246Z,1022.15
2019-03-28T10:47:15.224Z,1022.11
2019-03-28T10:48:23.383Z,1022.13
2019-03-28T10:49:15.811Z,1021.97
2019-03-28T10:50:15.199Z,1022.06
2019-03-28T10:51:15.180Z,1022.13
2019-03-28T10:52:15.175Z,1022.16
2019-03-28T10:53:15.181Z,1022.13
2019-03-28T10:54:20.488Z,1022.15
2019-03-28T10:55:16.754Z,1022.02
2019-03-28T10:56:22.044Z,1021.95
2019-03-28T10:57:29.617Z,1022.02
2019-03-28T10:58:19.166Z,1022.01
2019-03-28T10:59:23.684Z,1022.09
2019-03-28T11:00:23.934Z,1022.10
2019-03-28T11:01:18.170Z,1022.05
2019-03-28T11:02:16.056Z,1022.04
2019-03-28T11:03:15.046Z,1022.09
2019-03-28T11:04:15.047Z,1022.07
2019-03-28T11:05:15.023Z,1022.00
2019-03-28T11:06:15.013Z,1022.01
2019-03-28T11:07:15.001Z,1022.02
2019-03-28T11:08:15.034Z,1022.03
2019-03-28T11:09:14.989Z,1022.02
2019-03-28T11:10:19.994Z,1022.05
2019-03-28T11:11:14.954Z,1021.96
2019-03-28T11:12:14.950Z,1021.99
2019-03-28T11:13:14.944Z,1021.95
2019-03-28T11:14:14.935Z,1021.92
2019-03-28T11:15:14.914Z,1021.91
2019-03-28T11:16:15.345Z,1021.92
2019-03-28T11:17:14.892Z,1021.86
2019-03-28T11:18:14.891Z,1021.88
2019-03-28T11:19:15.951Z,1021.93
2019-03-28T11:20:14.857Z,1021.84
2019-03-28T11:21:19.861Z,1021.75
2019-03-28T11:22:14.832Z,1021.84
2019-03-28T11:23:14.828Z,1021.82
2019-03-28T11:24:14.816Z,1021.84
2019-03-28T11:25:14.791Z,1021.81
2019-03-28T11:26:14.784Z,1021.82
2019-03-28T11:27:14.771Z,1021.71
2019-03-28T11:28:15.759Z,1021.68
2019-03-28T11:29:14.761Z,1021.79
2019-03-28T11:30:18.190Z,1021.74
2019-03-28T11:31:14.728Z,1021.68
2019-03-28T11:32:19.742Z,1021.71
2019-03-28T11:33:14.709Z,1021.64
2019-03-28T11:34:14.933Z,1021.57
2019-03-28T11:35:14.684Z,1021.65
2019-03-28T11:36:14.671Z,1021.54
2019-03-28T11:37:25.380Z,1021.60
2019-03-28T11:38:15.653Z,1021.68
2019-03-28T11:39:14.659Z,1021.65
2019-03-28T11:40:14.629Z,1021.64
2019-03-28T11:41:14.654Z,1021.68
2019-03-28T11:42:14.608Z,1021.65
2019-03-28T11:43:19.731Z,1021.55
2019-03-28T11:44:14.604Z,1021.78
2019-03-28T11:45:14.574Z,1021.72
2019-03-28T11:46:14.564Z,1021.64
2019-03-28T11:47:14.562Z,1021.56
2019-03-28T11:48:14.536Z,1021.54
2019-03-28T11:49:14.537Z,1021.54
2019-03-28T11:50:17.086Z,1021.47
2019-03-28T11:51:14.514Z,1021.54
2019-03-28T11:52:14.492Z,1021.49
2019-03-28T11:53:14.486Z,1021.50
2019-03-28T11:54:19.519Z,1021.53
2019-03-28T11:55:14.459Z,1021.54
2019-03-28T11:56:14.448Z,1021.58
2019-03-28T11:57:15.910Z,1021.50
2019-03-28T11:58:14.443Z,1021.44
2019-03-28T11:59:14.425Z,1021.48
2019-03-28T12:00:14.411Z,1021.52
2019-03-28T12:01:14.442Z,1021.52
2019-03-28T12:02:20.129Z,1021.47
2019-03-28T12:03:15.372Z,1021.35
2019-03-28T12:04:14.370Z,1021.40
2019-03-28T12:05:19.375Z,1021.46